createdAt,value
2024-02-24T02:55:05.372Z,7.70
2024-02-24T02:57:34.069Z,7.60
2024-02-24T03:00:03.694Z,7.60
2024-02-24T03:02:32.474Z,7.60
2024-02-24T03:05:01.433Z,7.60
2024-02-24T03:07:32.773Z,7.70
2024-02-24T03:10:01.517Z,7.60
2024-02-24T03:12:31.811Z,7.70
2024-02-24T03:15:01.228Z,7.80
2024-02-24T03:17:30.109Z,7.80
2024-02-24T03:19:58.920Z,7.80
2024-02-24T03:22:28.534Z,7.70
2024-02-24T03:24:57.331Z,7.80
2024-02-24T03:27:26.089Z,7.70
2024-02-24T03:29:56.194Z,7.70
2024-02-24T03:32:25.042Z,7.70
2024-02-24T03:34:53.814Z,7.80
2024-02-24T03:37:22.572Z,7.80
2024-02-24T03:39:51.363Z,7.80
2024-02-24T03:42:20.147Z,7.70
2024-02-24T03:44:48.880Z,7.70
2024-02-24T03:47:19.034Z,7.70
2024-02-24T03:49:47.803Z,7.70
2024-02-24T03:52:16.533Z,7.70
2024-02-24T03:54:45.343Z,7.80
2024-02-24T03:57:14.126Z,7.90
2024-02-24T03:59:42.958Z,7.80
2024-02-24T04:02:12.075Z,7.90
2024-02-24T04:04:42.642Z,7.90
2024-02-24T04:07:11.693Z,7.90
2024-02-24T04:09:41.487Z,8.00
2024-02-24T04:12:10.586Z,7.90
2024-02-24T04:14:39.565Z,8.00
2024-02-24T04:17:08.559Z,8.10
2024-02-24T04:19:37.435Z,8.10
2024-02-24T04:22:10.702Z,8.20
2024-02-24T04:24:39.553Z,8.10
2024-02-24T04:27:08.438Z,8.10
2024-02-24T04:29:37.414Z,8.10
2024-02-24T04:32:06.986Z,8.20
2024-02-24T04:34:38.675Z,8.20
2024-02-24T04:37:08.894Z,8.10
2024-02-24T04:39:37.825Z,8.10
2024-02-24T04:42:06.901Z,8.10
2024-02-24T04:44:35.847Z,8.10
2024-02-24T04:47:05.051Z,8.00
2024-02-24T04:49:33.914Z,7.90
2024-02-24T04:52:02.957Z,7.80
2024-02-24T04:54:33.173Z,7.60
2024-02-24T04:57:01.959Z,7.20
2024-02-24T04:59:30.825Z,6.90
2024-02-24T05:01:59.960Z,6.80
2024-02-24T05:04:28.964Z,6.80
2024-02-24T05:06:57.874Z,6.90
2024-02-24T05:09:27.095Z,6.90
2024-02-24T05:11:57.806Z,6.90
2024-02-24T05:14:27.053Z,6.90
2024-02-24T05:16:55.919Z,6.90
2024-02-24T05:19:25.037Z,6.90
2024-02-24T05:21:54.155Z,6.90
2024-02-24T05:24:22.983Z,6.90
2024-02-24T05:26:52.084Z,7.00
2024-02-24T05:29:22.351Z,7.00
2024-02-24T05:31:51.318Z,7.00
2024-02-24T05:34:20.411Z,7.10
2024-02-24T05:36:50.015Z,7.00
2024-02-24T05:39:18.886Z,7.10
2024-02-24T05:41:48.011Z,7.10
2024-02-24T05:44:17.113Z,7.10
2024-02-24T05:46:47.487Z,7.10
2024-02-24T05:49:16.522Z,7.10
2024-02-24T05:51:45.482Z,7.10
2024-02-24T05:54:14.447Z,7.10
2024-02-24T05:56:43.389Z,7.10
2024-02-24T05:59:12.290Z,7.00
2024-02-24T06:01:41.185Z,6.90
2024-02-24T06:04:11.427Z,7.00
2024-02-24T06:06:40.275Z,7.10
2024-02-24T06:09:09.200Z,7.10
2024-02-24T06:11:38.481Z,7.10
2024-02-24T06:14:07.618Z,7.00
2024-02-24T06:16:36.484Z,7.00
2024-02-24T06:19:05.436Z,6.90
2024-02-24T06:21:35.627Z,7.00
2024-02-24T06:24:04.769Z,6.90
2024-02-24T06:26:33.649Z,7.00
2024-02-24T06:29:02.594Z,6.90
2024-02-24T06:31:31.433Z,6.90
2024-02-24T06:34:00.321Z,6.90
2024-02-24T06:36:29.168Z,7.00
2024-02-24T06:38:59.739Z,7.00
2024-02-24T06:41:28.560Z,7.10
2024-02-24T06:43:57.548Z,7.00
2024-02-24T06:46:26.635Z,6.90
2024-02-24T06:48:55.703Z,7.00
2024-02-24T06:51:24.583Z,6.90
2024-02-24T06:53:55.760Z,7.00
2024-02-24T06:56:26.132Z,7.10
2024-02-24T06:58:54.975Z,7.10
2024-02-24T07:01:24.179Z,7.10
2024-02-24T07:03:53.467Z,7.00
2024-02-24T07:06:22.282Z,6.90
2024-02-24T07:08:51.167Z,6.90
2024-02-24T07:11:20.035Z,6.90
2024-02-24T07:13:50.358Z,7.00
2024-02-24T07:16:19.280Z,7.10
2024-02-24T07:18:48.175Z,7.10
2024-02-24T07:21:17.007Z,7.10
2024-02-24T07:23:45.851Z,7.10
2024-02-24T07:26:14.625Z,7.00
2024-02-24T07:28:43.459Z,7.10
2024-02-24T07:31:13.588Z,7.20
2024-02-24T07:33:42.494Z,7.10
2024-02-24T07:36:11.618Z,7.00
2024-02-24T07:38:41.632Z,7.00
2024-02-24T07:41:10.434Z,7.00
2024-02-24T07:43:39.243Z,7.00
2024-02-24T07:46:08.102Z,7.00
2024-02-24T07:48:39.844Z,7.00
2024-02-24T07:51:08.864Z,7.00
2024-02-24T07:53:37.800Z,6.90
2024-02-24T07:56:07.354Z,6.80
2024-02-24T07:58:36.114Z,6.90
2024-02-24T08:01:05.127Z,7.00
2024-02-24T08:03:34.355Z,7.00
2024-02-24T08:06:04.725Z,6.90
2024-02-24T08:08:35.074Z,7.00
2024-02-24T08:11:04.122Z,7.00
2024-02-24T08:13:32.978Z,7.00
2024-02-24T08:16:06.064Z,7.00
2024-02-24T08:18:34.914Z,7.00
2024-02-24T08:21:08.708Z,6.90
2024-02-24T08:23:37.935Z,6.70
2024-02-24T08:26:06.811Z,6.80
2024-02-24T08:28:35.595Z,6.90
2024-02-24T08:31:04.461Z,7.00
2024-02-24T08:33:33.493Z,7.10
2024-02-24T08:36:02.543Z,7.10
2024-02-24T08:38:33.288Z,7.10
2024-02-24T08:41:02.147Z,7.10
2024-02-24T08:43:30.981Z,7.10
2024-02-24T08:45:59.767Z,7.20
2024-02-24T08:48:28.577Z,7.20
2024-02-24T08:50:57.456Z,7.20
2024-02-24T08:53:26.527Z,7.30
2024-02-24T08:55:56.709Z,7.20
2024-02-24T08:58:25.577Z,7.20
2024-02-24T09:00:55.677Z,7.20
2024-02-24T09:03:25.480Z,7.40
2024-02-24T09:05:54.585Z,7.60
2024-02-24T09:08:23.529Z,7.80
2024-02-24T09:10:53.951Z,7.80
2024-02-24T09:13:24.177Z,7.80
2024-02-24T09:15:53.125Z,7.70
2024-02-24T09:18:22.003Z,7.60
2024-02-24T09:20:51.000Z,7.40
2024-02-24T09:23:19.865Z,7.60
2024-02-24T09:25:48.733Z,7.60
2024-02-24T09:28:17.680Z,7.80
2024-02-24T09:30:48.001Z,7.80
2024-02-24T09:33:17.263Z,8.00
2024-02-24T09:35:46.385Z,8.00
2024-02-24T09:38:15.370Z,8.20
2024-02-24T09:40:44.895Z,8.10
2024-02-24T09:43:13.842Z,7.80
2024-02-24T09:45:49.673Z,7.80
2024-02-24T09:48:20.385Z,7.70
2024-02-24T09:50:49.431Z,7.80
2024-02-24T09:53:18.332Z,7.70
2024-02-24T09:55:50.311Z,7.80
2024-02-24T09:58:20.004Z,7.70
2024-02-24T10:00:52.847Z,7.80
2024-02-24T10:03:23.271Z,7.80
2024-02-24T10:05:52.466Z,7.90
2024-02-24T10:08:21.448Z,8.10
2024-02-24T10:10:51.371Z,7.90
2024-02-24T10:13:20.825Z,7.80
2024-02-24T10:15:51.051Z,7.80
2024-02-24T10:18:22.624Z,7.80
2024-02-24T10:20:53.508Z,7.90
2024-02-24T10:23:22.555Z,8.20
2024-02-24T10:25:51.436Z,8.40
2024-02-24T10:28:20.805Z,8.50
2024-02-24T10:30:50.967Z,8.40
2024-02-24T10:33:20.103Z,8.20
2024-02-24T10:35:52.425Z,8.20
2024-02-24T10:38:29.468Z,8.00
2024-02-24T10:41:05.955Z,8.00
2024-02-24T10:43:36.393Z,7.80
2024-02-24T10:46:06.909Z,7.80
2024-02-24T10:48:35.924Z,7.80
2024-02-24T10:51:05.299Z,8.00
2024-02-24T10:53:35.328Z,8.00
2024-02-24T10:56:04.960Z,8.00
2024-02-24T10:58:36.330Z,8.20
2024-02-24T11:01:07.453Z,8.40
2024-02-24T11:03:37.083Z,8.20
2024-02-24T11:06:06.926Z,8.00
2024-02-24T11:08:40.378Z,8.00
2024-02-24T11:11:11.780Z,8.10
2024-02-24T11:13:55.936Z,8.20
2024-02-24T11:16:37.777Z,8.20
2024-02-24T11:19:12.658Z,8.20
2024-02-24T11:22:00.372Z,8.30
2024-02-24T11:24:33.524Z,8.20
2024-02-24T11:27:03.501Z,7.90
2024-02-24T11:29:36.547Z,7.60
2024-02-24T11:32:14.046Z,7.40
2024-02-24T11:34:46.135Z,7.40
2024-02-24T11:37:18.420Z,7.50
2024-02-24T11:39:48.914Z,7.80
2024-02-24T11:42:17.850Z,8.00
2024-02-24T11:44:48.359Z,8.10
2024-02-24T11:47:21.694Z,8.20
2024-02-24T11:49:50.956Z,8.40
2024-02-24T11:52:19.934Z,8.50
2024-02-24T11:54:49.397Z,8.60
2024-02-24T11:57:21.360Z,8.70
2024-02-24T11:59:52.080Z,8.60
2024-02-24T12:02:22.560Z,8.90
2024-02-24T12:04:51.642Z,9.00
2024-02-24T12:07:21.246Z,9.00
2024-02-24T12:09:52.489Z,9.00
2024-02-24T12:12:22.218Z,9.10
2024-02-24T12:14:51.389Z,8.90
2024-02-24T12:17:22.187Z,8.60
2024-02-24T12:19:51.369Z,8.60
2024-02-24T12:22:22.825Z,8.80
2024-02-24T12:24:51.596Z,9.00
2024-02-24T12:27:22.746Z,9.20
2024-02-24T12:29:53.398Z,9.30
2024-02-24T12:32:23.782Z,9.40
2024-02-24T12:35:02.710Z,9.20
2024-02-24T12:37:35.161Z,8.90
2024-02-24T12:40:05.331Z,8.80
2024-02-24T12:42:40.205Z,8.80
2024-02-24T12:45:10.386Z,8.60
2024-02-24T12:47:40.586Z,8.80
2024-02-24T12:50:10.166Z,9.00
2024-02-24T12:52:39.034Z,9.30
2024-02-24T12:55:08.467Z,9.30
2024-02-24T12:57:37.448Z,9.20
2024-02-24T13:00:07.773Z,9.20
2024-02-24T13:02:37.284Z,8.90
2024-02-24T13:05:08.635Z,8.90
2024-02-24T13:07:37.702Z,8.80
2024-02-24T13:10:06.963Z,9.00
2024-02-24T13:12:35.884Z,9.00
2024-02-24T13:15:05.107Z,9.10
2024-02-24T13:17:34.147Z,9.20
2024-02-24T13:20:03.343Z,9.40
2024-02-24T13:22:33.530Z,9.60
2024-02-24T13:25:02.347Z,9.70
2024-02-24T13:27:31.182Z,9.70
2024-02-24T13:30:00.033Z,9.90
2024-02-24T13:32:29.223Z,10.00
2024-02-24T13:34:58.012Z,9.80
2024-02-24T13:37:27.435Z,9.70
2024-02-24T13:39:57.616Z,9.80
2024-02-24T13:42:28.033Z,9.90
2024-02-24T13:44:57.802Z,9.90
2024-02-24T13:47:27.914Z,10.00
2024-02-24T13:49:56.792Z,10.10
2024-02-24T13:52:25.620Z,10.10
2024-02-24T13:54:54.442Z,10.00
2024-02-24T13:57:24.750Z,10.10
2024-02-24T13:59:53.630Z,9.90
2024-02-24T14:02:24.242Z,9.80
2024-02-24T14:04:53.126Z,9.90
2024-02-24T14:07:22.116Z,9.90
2024-02-24T14:09:50.950Z,9.80
2024-02-24T14:12:19.808Z,10.00
2024-02-24T14:14:50.027Z,10.10
2024-02-24T14:17:19.068Z,10.20
2024-02-24T14:19:47.935Z,10.20
2024-02-24T14:22:16.868Z,10.10
2024-02-24T14:24:45.744Z,10.10
2024-02-24T14:27:14.536Z,10.00
2024-02-24T14:29:43.409Z,9.90
2024-02-24T14:32:13.734Z,9.80
2024-02-24T14:34:42.666Z,9.70
2024-02-24T14:37:11.642Z,9.70
2024-02-24T14:39:40.662Z,9.70
2024-02-24T14:42:09.511Z,9.80
2024-02-24T14:44:38.432Z,9.90
2024-02-24T14:47:08.590Z,10.10
2024-02-24T14:49:40.347Z,10.20
2024-02-24T14:52:10.510Z,10.20
2024-02-24T14:54:42.299Z,10.40
2024-02-24T14:57:13.780Z,10.40
2024-02-24T14:59:42.765Z,10.30
2024-02-24T15:02:15.100Z,10.20
2024-02-24T15:04:49.607Z,10.30
2024-02-24T15:07:18.520Z,10.20
2024-02-24T15:09:48.776Z,10.10
2024-02-24T15:12:17.690Z,10.00
2024-02-24T15:14:46.533Z,10.10
2024-02-24T15:17:15.641Z,10.00
2024-02-24T15:19:46.535Z,10.10
2024-02-24T15:22:16.951Z,9.90
2024-02-24T15:24:46.164Z,9.90
2024-02-24T15:27:15.054Z,9.70
2024-02-24T15:29:45.667Z,9.70
2024-02-24T15:32:14.816Z,9.70
2024-02-24T15:34:43.714Z,9.80
2024-02-24T15:37:12.509Z,9.80
2024-02-24T15:39:42.713Z,9.80
2024-02-24T15:42:11.520Z,9.70
2024-02-24T15:44:40.354Z,9.60
2024-02-24T15:47:09.158Z,9.70
2024-02-24T15:49:37.997Z,9.50
2024-02-24T15:52:07.475Z,9.60
2024-02-24T15:54:36.374Z,9.50
2024-02-24T15:57:07.104Z,9.50
2024-02-24T15:59:36.020Z,9.60
2024-02-24T16:02:05.112Z,9.50
2024-02-24T16:04:34.263Z,9.60
2024-02-24T16:07:04.480Z,9.40
2024-02-24T16:09:33.646Z,9.30
2024-02-24T16:12:02.614Z,9.30
2024-02-24T16:14:32.854Z,9.30
2024-02-24T16:17:03.115Z,9.30
2024-02-24T16:19:31.975Z,9.20
2024-02-24T16:22:01.153Z,9.30
2024-02-24T16:24:31.267Z,9.30
2024-02-24T16:27:00.329Z,9.40
2024-02-24T16:29:29.763Z,9.40
2024-02-24T16:32:00.056Z,9.40
2024-02-24T16:34:29.462Z,9.40
2024-02-24T16:36:58.773Z,9.50
2024-02-24T16:39:28.334Z,9.40
2024-02-24T16:41:57.308Z,9.30
2024-02-24T16:44:26.749Z,9.30
2024-02-24T16:46:56.374Z,9.30
2024-02-24T16:49:26.805Z,9.20
2024-02-24T16:51:55.704Z,9.20
2024-02-24T16:54:24.837Z,9.10
2024-02-24T16:56:53.701Z,9.10
2024-02-24T16:59:23.362Z,9.10
2024-02-24T17:01:52.172Z,9.00
2024-02-24T17:04:21.083Z,9.00
2024-02-24T17:06:51.334Z,8.90
2024-02-24T17:09:20.283Z,8.90
2024-02-24T17:11:49.240Z,8.90
2024-02-24T17:14:18.170Z,8.90
2024-02-24T17:16:47.038Z,8.90
2024-02-24T17:19:16.182Z,8.90
2024-02-24T17:21:45.130Z,8.90
2024-02-24T17:24:15.406Z,8.90
2024-02-24T17:26:45.411Z,8.80
2024-02-24T17:29:14.296Z,8.80
2024-02-24T17:31:43.060Z,8.80
2024-02-24T17:34:12.116Z,8.90
2024-02-24T17:36:45.730Z,8.80
2024-02-24T17:39:16.074Z,8.80
2024-02-24T17:41:45.405Z,8.70
2024-02-24T17:44:14.154Z,8.70
2024-02-24T17:46:43.058Z,8.60
2024-02-24T17:49:12.662Z,8.60
2024-02-24T17:51:41.491Z,8.50
2024-02-24T17:54:10.287Z,8.50
2024-02-24T17:56:41.472Z,8.50
2024-02-24T17:59:10.654Z,8.30
2024-02-24T18:01:39.520Z,8.40
2024-02-24T18:04:08.598Z,8.40
2024-02-24T18:06:37.560Z,8.50
2024-02-24T18:09:06.722Z,8.50
2024-02-24T18:11:35.557Z,8.50
2024-02-24T18:14:06.512Z,8.40
2024-02-24T18:16:35.340Z,8.30
2024-02-24T18:19:06.966Z,8.20
2024-02-24T18:21:35.868Z,8.20
2024-02-24T18:24:04.920Z,8.20
2024-02-24T18:26:33.781Z,8.20
2024-02-24T18:29:03.088Z,8.20
2024-02-24T18:31:33.614Z,8.20
2024-02-24T18:34:02.596Z,8.10
2024-02-24T18:36:32.299Z,8.10
2024-02-24T18:39:01.382Z,8.10
2024-02-24T18:41:30.372Z,8.20
2024-02-24T18:43:59.434Z,8.30
2024-02-24T18:46:28.242Z,8.30
2024-02-24T18:48:58.674Z,8.30
2024-02-24T18:51:27.562Z,8.30
2024-02-24T18:53:56.337Z,8.30
2024-02-24T18:56:26.416Z,8.20
2024-02-24T18:58:55.347Z,8.10
2024-02-24T19:01:24.341Z,8.10
2024-02-24T19:03:53.200Z,8.10
2024-02-24T19:06:23.575Z,8.00
2024-02-24T19:08:52.548Z,8.00
2024-02-24T19:11:21.502Z,8.10
2024-02-24T19:13:50.277Z,8.00
2024-02-24T19:16:19.085Z,8.20
2024-02-24T19:18:47.897Z,8.30
2024-02-24T19:21:16.892Z,8.40
2024-02-24T19:23:48.672Z,8.40
2024-02-24T19:26:17.576Z,8.40
2024-02-24T19:28:46.345Z,8.40
2024-02-24T19:31:15.258Z,8.30
2024-02-24T19:33:44.144Z,8.30
2024-02-24T19:36:13.041Z,8.30
2024-02-24T19:38:41.959Z,8.20
2024-02-24T19:41:12.337Z,8.20
2024-02-24T19:43:41.114Z,8.10
2024-02-24T19:46:10.164Z,8.10
2024-02-24T19:48:39.220Z,8.00
2024-02-24T19:51:13.731Z,8.00
2024-02-24T19:53:42.664Z,8.00
2024-02-24T19:56:12.970Z,7.90
2024-02-24T19:58:47.874Z,8.00
2024-02-24T20:01:23.540Z,8.00
2024-02-24T20:03:52.328Z,7.90
2024-02-24T20:06:21.421Z,7.90
2024-02-24T20:08:51.624Z,8.00
2024-02-24T20:11:22.161Z,8.00
2024-02-24T20:13:50.854Z,8.10
2024-02-24T20:16:19.668Z,8.20
2024-02-24T20:18:48.474Z,8.20
2024-02-24T20:21:17.579Z,8.10
2024-02-24T20:23:47.552Z,8.00
2024-02-24T20:26:16.405Z,8.00
2024-02-24T20:28:46.487Z,8.10
2024-02-24T20:31:15.221Z,8.10
2024-02-24T20:33:53.255Z,8.10
2024-02-24T20:36:28.608Z,8.10
2024-02-24T20:38:59.858Z,8.00
2024-02-24T20:41:30.404Z,8.00
2024-02-24T20:44:02.185Z,8.00
2024-02-24T20:46:30.843Z,8.10
2024-02-24T20:48:59.968Z,8.00
2024-02-24T20:51:28.770Z,7.90
2024-02-24T20:53:57.546Z,7.90
2024-02-24T20:56:26.513Z,8.00
2024-02-24T20:58:55.272Z,7.90
2024-02-24T21:01:28.120Z,7.90
2024-02-24T21:03:57.273Z,7.80
2024-02-24T21:06:26.472Z,7.70
2024-02-24T21:08:55.702Z,7.70
2024-02-24T21:11:24.769Z,7.80
2024-02-24T21:13:53.542Z,7.70
2024-02-24T21:16:22.207Z,7.60
2024-02-24T21:18:54.533Z,7.60
2024-02-24T21:21:24.504Z,7.60
2024-02-24T21:23:55.595Z,7.60
2024-02-24T21:26:24.842Z,7.60
2024-02-24T21:28:53.811Z,7.60
2024-02-24T21:31:22.857Z,7.60
2024-02-24T21:33:53.317Z,7.60
2024-02-24T21:36:22.422Z,7.60
2024-02-24T21:38:51.297Z,7.70
2024-02-24T21:41:20.817Z,7.70
2024-02-24T21:43:49.629Z,7.80
2024-02-24T21:46:18.354Z,7.70
2024-02-24T21:48:49.377Z,7.70
2024-02-24T21:51:19.846Z,7.90
2024-02-24T21:53:51.449Z,7.70
2024-02-24T21:56:20.445Z,7.80
2024-02-24T21:58:49.229Z,7.90
2024-02-24T22:01:20.166Z,7.90
2024-02-24T22:03:50.801Z,8.00
2024-02-24T22:06:21.259Z,8.00
2024-02-24T22:08:50.202Z,8.00
2024-02-24T22:11:19.212Z,7.70
2024-02-24T22:13:48.151Z,7.70
2024-02-24T22:16:17.222Z,7.80
2024-02-24T22:18:46.167Z,7.70
2024-02-24T22:21:15.468Z,7.80
2024-02-24T22:23:45.882Z,7.80
2024-02-24T22:26:14.738Z,7.70
2024-02-24T22:28:43.590Z,7.60
2024-02-24T22:31:12.736Z,7.60
2024-02-24T22:33:41.837Z,7.50
2024-02-24T22:36:12.763Z,7.40
2024-02-24T22:38:42.171Z,7.40
2024-02-24T22:41:15.735Z,7.50
2024-02-24T22:43:44.544Z,7.60
2024-02-24T22:46:13.682Z,7.60
2024-02-24T22:48:42.620Z,7.70
2024-02-24T22:51:11.513Z,7.60
2024-02-24T22:53:41.409Z,7.70
2024-02-24T22:56:10.342Z,7.60
2024-02-24T22:58:40.568Z,7.60
2024-02-24T23:01:10.418Z,7.70
2024-02-24T23:03:39.357Z,7.70
2024-02-24T23:06:09.239Z,7.70
2024-02-24T23:08:38.094Z,7.70
2024-02-24T23:11:07.102Z,7.60
2024-02-24T23:13:35.897Z,7.60
2024-02-24T23:16:06.711Z,7.60
2024-02-24T23:18:35.643Z,7.70
2024-02-24T23:21:04.614Z,7.70
2024-02-24T23:23:33.476Z,7.70
2024-02-24T23:26:02.329Z,7.80
2024-02-24T23:28:31.068Z,7.80
2024-02-24T23:31:01.747Z,7.80
2024-02-24T23:33:32.013Z,7.90
2024-02-24T23:36:01.037Z,7.80
2024-02-24T23:38:30.034Z,7.90
2024-02-24T23:40:58.963Z,7.90
2024-02-24T23:43:27.883Z,7.90
2024-02-24T23:45:56.843Z,7.80
2024-02-24T23:48:28.753Z,7.90
2024-02-24T23:51:00.841Z,7.90
2024-02-24T23:53:29.696Z,7.90
2024-02-24T23:55:59.601Z,7.80
2024-02-24T23:58:28.459Z,7.90
